00:27
Airports
History
Links
Donate
Help keep this website running!
PayPal
Bitcoin
This page is community maintained. The information is intended for PC simulator navigation or reference.
Always use approved charts for navigation.
99W
Bull Farm
Bull Farm (99W)
Cape Charles, Virginia, United States (23310)
4
Lat/Lng:37° 9' 16.51" N / 75° 57' 24.75" W
37.154586 / -75.956874
Elevation:18'ft / 5mMSL
ID / ICAO:99W
Runways:1
Longest:02-20
Grass 917m / 3,010ft
Nearby Weather23:51 GMT 2017-12-13
Nearby weather at KORF, Norfolk Intl located 22.5 nautical miles from 99W
Altimeter: 29.82
Visibility: 10.0 statute miles
Wind: 6 knots (from 210°)
Temp: 0°c / 32°f
Humidity: %

METAR: KORF 132351Z 21006KT 10SM FEW100 00/M12 A2982 RMK AO2 SLP096 T00001117 10033 20000 58004

(Powered by phpweather)
Nearby VORs <50NM
Nearby NDBs
Runway 02 / 20
Dimensions:917.3 x 15.2m 3010' x 50'ft
Surface:Grass
Runway 02 [A]Runway 20 [B]
Heading:010°TH 190°TH
Lat:
Lng:
37° 9' 1.92"N
75° 57' 27.98"W
37° 9' 31.1"N
75° 57' 21.52"W
User Notes and Comments
37° 9' 16.51" N / 75° 57' 24.75" W
Distance To
Airport ID:
Nearby Airports
4 Scott Farm Strip 5.1 NM
98W NNW 347°
(R) Cherrystone 9.5 NM
24VA NNW 345°
(R) Eagles Nest 10.3 NM
21VA N
4 Kellam Field 21.4 NM
W08 N 11°
(C) Norfolk Intl 22.5 NM
KORF ( WX ) SW 216°
(R) Langley Afb 22.8 NM
KLFI ( WX ) WSW 257°
(R) Oceana Nas /apollo Soucek Fiel 23.3 NM
KNTU ( WX ) S 190°
VFR Chart
Flight Planning at SkyVector.com